createdAt,value
2018-06-10T00:00:26.448Z,100841.86
2018-06-10T00:02:55.009Z,100832.73
2018-06-10T00:05:23.609Z,100826.64
2018-06-10T00:07:52.214Z,100818.74
2018-06-10T00:10:20.883Z,100819.22
2018-06-10T00:12:49.477Z,100824.01
2018-06-10T00:15:18.112Z,100817.88
2018-06-10T00:17:46.697Z,100816.58
2018-06-10T00:20:15.356Z,100799.89
2018-06-10T00:22:43.944Z,100797.70
2018-06-10T00:25:12.600Z,100785.81
2018-06-10T00:27:41.271Z,100773.52
2018-06-10T00:30:09.935Z,100768.67
2018-06-10T00:32:38.618Z,100762.08
2018-06-10T00:35:07.238Z,100763.41
2018-06-10T00:37:35.831Z,100766.91
2018-06-10T00:40:04.507Z,100758.56
2018-06-10T00:42:33.104Z,100750.66
2018-06-10T00:45:02.027Z,100757.23
2018-06-10T00:47:30.625Z,100758.55
2018-06-10T00:49:59.174Z,100764.72
2018-06-10T00:52:27.751Z,100773.97
2018-06-10T00:54:56.327Z,100773.52
2018-06-10T00:57:25.020Z,100761.20
2018-06-10T00:59:53.711Z,100758.11
2018-06-10T01:02:22.592Z,100756.80
2018-06-10T01:04:51.181Z,100753.69
2018-06-10T01:07:20.055Z,100752.39
2018-06-10T01:09:48.643Z,100749.77
2018-06-10T01:12:17.253Z,100758.98
2018-06-10T01:14:45.813Z,100759.41
2018-06-10T01:17:14.435Z,100766.88
2018-06-10T01:19:43.071Z,100759.86
2018-06-10T01:22:11.811Z,100753.73
2018-06-10T01:24:40.556Z,100744.02
2018-06-10T01:27:09.474Z,100739.64
2018-06-10T01:29:38.184Z,100732.61
2018-06-10T01:32:06.765Z,100738.36
2018-06-10T01:34:35.730Z,100734.83
2018-06-10T01:37:04.320Z,100732.64
2018-06-10T01:39:32.941Z,100735.23
2018-06-10T01:42:01.821Z,100729.07
2018-06-10T01:44:30.393Z,100724.64
2018-06-10T01:46:59.069Z,100725.10
2018-06-10T01:49:27.841Z,100719.46
2018-06-10T01:51:56.561Z,100713.27
2018-06-10T01:54:25.228Z,100709.76
2018-06-10T01:56:54.096Z,100714.17
2018-06-10T01:59:22.993Z,100712.44
2018-06-10T02:01:51.556Z,100698.37
2018-06-10T02:04:20.178Z,100697.50
2018-06-10T02:06:48.756Z,100689.16
2018-06-10T02:09:17.342Z,100692.23
2018-06-10T02:11:46.151Z,100690.05
2018-06-10T02:14:14.717Z,100689.62
2018-06-10T02:16:43.363Z,100688.79
2018-06-10T02:19:11.997Z,100697.56
2018-06-10T02:21:40.629Z,100700.17
2018-06-10T02:24:09.216Z,100694.03
2018-06-10T02:26:37.876Z,100697.13
2018-06-10T02:29:06.516Z,100700.64
2018-06-10T02:31:35.101Z,100688.33
2018-06-10T02:34:03.664Z,100688.76
2018-06-10T02:36:32.399Z,100689.63
2018-06-10T02:39:01.076Z,100683.91
2018-06-10T02:41:29.696Z,100682.16
2018-06-10T02:43:58.317Z,100685.23
2018-06-10T02:46:26.902Z,100680.41
2018-06-10T02:48:55.463Z,100676.88
2018-06-10T02:51:24.094Z,100674.71
2018-06-10T02:53:52.653Z,100676.92
2018-06-10T02:56:21.272Z,100670.32
2018-06-10T02:58:49.949Z,100676.03
2018-06-10T03:01:18.640Z,100680.40
2018-06-10T03:03:47.354Z,100686.99
2018-06-10T03:06:15.904Z,100690.11
2018-06-10T03:08:44.496Z,100684.37
2018-06-10T03:11:13.318Z,100680.87
2018-06-10T03:13:41.893Z,100681.73
2018-06-10T03:16:10.443Z,100679.98
2018-06-10T03:18:39.061Z,100676.91
2018-06-10T03:21:07.822Z,100678.23
2018-06-10T03:23:36.380Z,100683.53
2018-06-10T03:26:04.953Z,100684.38
2018-06-10T03:28:33.654Z,100669.89
2018-06-10T03:31:02.269Z,100667.70
2018-06-10T03:33:30.814Z,100669.03
2018-06-10T03:35:59.624Z,100668.57
2018-06-10T03:38:28.413Z,100670.34
2018-06-10T03:40:57.061Z,100675.60
2018-06-10T03:43:25.790Z,100672.96
2018-06-10T03:45:54.491Z,100677.80
2018-06-10T03:48:23.061Z,100683.05
2018-06-10T03:50:51.715Z,100677.35
2018-06-10T03:53:20.258Z,100680.42
2018-06-10T03:55:48.845Z,100679.55
2018-06-10T03:58:17.424Z,100675.58
2018-06-10T04:00:46.037Z,100688.74
2018-06-10T04:03:14.673Z,100685.22
2018-06-10T04:05:43.277Z,100684.28
2018-06-10T04:08:11.861Z,100678.14
2018-06-10T04:10:40.729Z,100672.41
2018-06-10T04:13:09.512Z,100682.94
2018-06-10T04:15:38.320Z,100679.48
2018-06-10T04:18:06.858Z,100684.34
2018-06-10T04:20:35.536Z,100690.91
2018-06-10T04:23:04.108Z,100694.39
2018-06-10T04:25:32.716Z,100700.53
2018-06-10T04:28:01.308Z,100695.73
2018-06-10T04:30:29.879Z,100700.95
2018-06-10T04:32:58.477Z,100703.16
2018-06-10T04:35:27.287Z,100708.45
2018-06-10T04:37:55.913Z,100706.30
2018-06-10T04:40:24.453Z,100705.83
2018-06-10T04:42:53.032Z,100705.40
2018-06-10T04:45:21.587Z,100697.94
2018-06-10T04:47:50.180Z,100715.49
2018-06-10T04:50:18.747Z,100715.50
2018-06-10T04:52:47.353Z,100724.27
2018-06-10T04:55:15.916Z,100725.58
2018-06-10T04:57:44.496Z,100723.85
2018-06-10T05:00:13.029Z,100731.75
2018-06-10T05:02:42.014Z,100728.25
2018-06-10T05:05:10.608Z,100727.80
2018-06-10T05:07:39.190Z,100727.41
2018-06-10T05:10:07.797Z,100730.47
2018-06-10T05:12:36.348Z,100734.88
2018-06-10T05:15:05.064Z,100731.80
2018-06-10T05:17:33.629Z,100740.14
2018-06-10T05:20:02.279Z,100735.73
2018-06-10T05:22:30.896Z,100733.10
2018-06-10T05:24:59.505Z,100738.39
2018-06-10T05:27:28.216Z,100731.81
2018-06-10T05:29:56.815Z,100733.56
2018-06-10T05:32:26.185Z,100733.12
2018-06-10T05:34:54.784Z,100737.92
2018-06-10T05:37:23.398Z,100731.36
2018-06-10T05:39:52.039Z,100737.94
2018-06-10T05:42:20.570Z,100740.16
2018-06-10T05:44:49.267Z,100738.38
2018-06-10T05:47:17.923Z,100755.09
2018-06-10T05:49:46.505Z,100748.05
2018-06-10T05:52:15.023Z,100750.25
2018-06-10T05:54:43.740Z,100746.72
2018-06-10T05:57:12.631Z,100748.02
2018-06-10T05:59:41.307Z,100751.98
2018-06-10T06:02:09.844Z,100749.77
2018-06-10T06:04:38.425Z,100755.06
2018-06-10T06:07:07.022Z,100753.30
2018-06-10T06:09:35.666Z,100761.20
2018-06-10T06:12:04.376Z,100758.53
2018-06-10T06:14:32.949Z,100760.75
2018-06-10T06:17:01.895Z,100766.03
2018-06-10T06:19:30.487Z,100766.89
2018-06-10T06:21:59.091Z,100763.80
2018-06-10T06:24:27.840Z,100769.52
2018-06-10T06:26:56.449Z,100765.13
2018-06-10T06:29:25.056Z,100766.03
2018-06-10T06:31:53.690Z,100766.91
2018-06-10T06:34:22.236Z,100765.58
2018-06-10T06:36:50.885Z,100766.00
2018-06-10T06:39:19.445Z,100758.50
2018-06-10T06:41:48.040Z,100764.21
2018-06-10T06:44:16.589Z,100769.91
2018-06-10T06:46:45.210Z,100770.78
2018-06-10T06:49:13.954Z,100771.65
2018-06-10T06:51:42.533Z,100773.47
2018-06-10T06:54:11.117Z,100773.89
2018-06-10T06:56:39.775Z,100756.23
2018-06-10T06:59:08.361Z,100761.02
2018-06-10T07:01:36.933Z,100760.18
2018-06-10T07:04:05.633Z,100756.59
2018-06-10T07:06:34.201Z,100756.55
2018-06-10T07:09:02.969Z,100758.77
2018-06-10T07:11:31.873Z,100759.57
2018-06-10T07:14:00.521Z,100753.39
2018-06-10T07:16:29.108Z,100751.67
2018-06-10T07:18:58.435Z,100752.06
2018-06-10T07:21:27.028Z,100730.97
2018-06-10T07:23:55.672Z,100751.14
2018-06-10T07:26:24.236Z,100752.94
2018-06-10T07:28:54.800Z,100756.88
2018-06-10T07:31:23.337Z,100751.53
2018-06-10T07:33:52.464Z,100748.05
2018-06-10T07:36:21.020Z,100731.36
2018-06-10T07:38:49.693Z,100748.89
2018-06-10T07:41:18.334Z,100751.46
2018-06-10T07:43:46.896Z,100756.68
2018-06-10T07:46:15.538Z,100759.73
2018-06-10T07:48:44.094Z,100760.64
2018-06-10T07:51:12.717Z,100768.92
2018-06-10T07:53:41.281Z,100772.59
2018-06-10T07:56:09.932Z,100774.85
2018-06-10T07:58:38.536Z,100776.59
2018-06-10T08:01:07.170Z,100777.95
2018-06-10T08:03:35.985Z,100778.30
2018-06-10T08:06:04.589Z,100777.52
2018-06-10T08:08:33.140Z,100775.33
2018-06-10T08:11:01.753Z,100772.33
2018-06-10T08:13:30.375Z,100770.05
2018-06-10T08:15:59.001Z,100769.17
2018-06-10T08:18:27.613Z,100766.96
2018-06-10T08:20:56.225Z,100764.77
2018-06-10T08:23:25.549Z,100766.09
2018-06-10T08:25:54.117Z,100762.63
2018-06-10T08:28:22.750Z,100762.58
2018-06-10T08:30:51.272Z,100766.48
2018-06-10T08:33:19.981Z,100764.73
2018-06-10T08:35:48.581Z,100763.84
2018-06-10T08:38:17.203Z,100764.73
2018-06-10T08:40:45.773Z,100766.05
2018-06-10T08:43:14.376Z,100760.84
2018-06-10T08:45:43.017Z,100760.71
2018-06-10T08:48:11.613Z,100769.02
2018-06-10T08:50:40.237Z,100759.70
2018-06-10T08:53:08.832Z,100764.38
2018-06-10T08:55:37.464Z,100770.44
2018-06-10T08:58:06.193Z,100775.45
2018-06-10T09:00:34.849Z,100769.13
2018-06-10T09:03:03.435Z,100771.78
2018-06-10T09:05:32.084Z,100767.03
2018-06-10T09:08:00.679Z,100775.48
2018-06-10T09:10:29.457Z,100775.86
2018-06-10T09:12:58.228Z,100780.28
2018-06-10T09:15:26.863Z,100775.70
2018-06-10T09:17:55.470Z,100779.34
2018-06-10T09:20:24.414Z,100777.56
2018-06-10T09:22:52.966Z,100774.83
2018-06-10T09:25:21.594Z,100775.92
2018-06-10T09:27:50.183Z,100772.77
2018-06-10T09:30:18.814Z,100774.55
2018-06-10T09:32:47.420Z,100776.33
2018-06-10T09:35:16.114Z,100776.34
2018-06-10T09:37:44.709Z,100771.81
2018-06-10T09:40:13.313Z,100766.41
2018-06-10T09:42:41.959Z,100768.03
2018-06-10T09:45:10.681Z,100766.66
2018-06-10T09:47:39.304Z,100767.00
2018-06-10T09:50:07.921Z,100765.14
2018-06-10T09:52:36.540Z,100760.76
2018-06-10T09:55:05.160Z,100767.60
2018-06-10T09:57:33.841Z,100761.90
2018-06-10T10:00:02.482Z,100766.02
2018-06-10T10:02:31.112Z,100770.83
2018-06-10T10:04:59.688Z,100773.30
2018-06-10T10:07:28.334Z,100772.44
2018-06-10T10:09:57.188Z,100766.01
2018-06-10T10:12:25.813Z,100771.12
2018-06-10T10:14:54.525Z,100768.54
2018-06-10T10:17:23.228Z,100768.39
2018-06-10T10:19:51.799Z,100763.95
2018-06-10T10:22:20.473Z,100755.87
2018-06-10T10:24:49.073Z,100760.45
2018-06-10T10:27:17.700Z,100765.09
2018-06-10T10:29:46.429Z,100766.74
2018-06-10T10:32:15.262Z,100759.55
2018-06-10T10:34:43.870Z,100752.58
2018-06-10T10:37:12.441Z,100761.55
2018-06-10T10:39:41.107Z,100758.28
2018-06-10T10:42:09.709Z,100760.84
2018-06-10T10:44:38.357Z,100758.69
2018-06-10T10:47:06.976Z,100764.22
2018-06-10T10:49:35.805Z,100761.80
2018-06-10T10:52:04.599Z,100757.57
2018-06-10T10:54:33.251Z,100761.77
2018-06-10T10:57:02.136Z,100764.39
2018-06-10T10:59:30.819Z,100765.55
2018-06-10T11:01:59.437Z,100752.39
2018-06-10T11:04:28.227Z,100751.78
2018-06-10T11:06:56.785Z,100752.47
2018-06-10T11:09:25.573Z,100758.64
2018-06-10T11:11:54.136Z,100760.41
2018-06-10T11:14:22.762Z,100754.70
2018-06-10T11:16:51.340Z,100756.30
2018-06-10T11:19:19.985Z,100748.97
2018-06-10T11:21:48.665Z,100747.06
2018-06-10T11:24:17.288Z,100748.77
2018-06-10T11:26:45.935Z,100754.95
2018-06-10T11:29:14.604Z,100750.75
2018-06-10T11:31:43.431Z,100749.91
2018-06-10T11:34:12.026Z,100746.11
2018-06-10T11:36:40.756Z,100748.26
2018-06-10T11:39:09.820Z,100753.35
2018-06-10T11:41:38.429Z,100751.36
2018-06-10T11:44:07.005Z,100753.83
2018-06-10T11:46:35.697Z,100754.92
2018-06-10T11:49:04.382Z,100753.22
2018-06-10T11:51:33.108Z,100747.19
2018-06-10T11:54:01.703Z,100751.49
2018-06-10T11:56:30.320Z,100750.64
2018-06-10T11:58:58.928Z,100748.88
2018-06-10T12:01:27.610Z,100749.48
2018-06-10T12:03:56.286Z,100747.90
2018-06-10T12:06:24.936Z,100750.38
2018-06-10T12:08:53.487Z,100752.05
2018-06-10T12:11:22.116Z,100745.45
2018-06-10T12:13:50.762Z,100751.75
2018-06-10T12:16:19.366Z,100752.51
2018-06-10T12:18:48.041Z,100748.19
2018-06-10T12:21:16.697Z,100744.93
2018-06-10T12:23:45.259Z,100739.70
2018-06-10T12:26:13.957Z,100738.80
2018-06-10T12:28:42.630Z,100747.12
2018-06-10T12:31:11.259Z,100737.34
2018-06-10T12:33:39.896Z,100739.95
2018-06-10T12:36:08.468Z,100733.62
2018-06-10T12:38:37.170Z,100730.31
2018-06-10T12:41:05.832Z,100734.56
2018-06-10T12:43:34.483Z,100731.63
2018-06-10T12:46:03.092Z,100733.28
2018-06-10T12:48:32.025Z,100731.39
2018-06-10T12:51:00.668Z,100725.86
2018-06-10T12:53:29.293Z,100721.06
2018-06-10T12:55:57.881Z,100720.09
2018-06-10T12:58:26.600Z,100722.61
2018-06-10T13:00:55.296Z,100711.17
2018-06-10T13:03:23.928Z,100710.25
2018-06-10T13:05:52.584Z,100705.34
2018-06-10T13:08:21.222Z,100699.98
2018-06-10T13:10:49.836Z,100697.23
2018-06-10T13:13:18.452Z,100695.20
2018-06-10T13:15:47.056Z,100691.06
2018-06-10T13:18:15.784Z,100694.90
2018-06-10T13:20:44.403Z,100700.02
2018-06-10T13:23:13.065Z,100696.31
2018-06-10T13:25:41.700Z,100695.39
2018-06-10T13:28:10.370Z,100696.37
2018-06-10T13:30:38.973Z,100690.38
2018-06-10T13:33:07.570Z,100692.11
2018-06-10T13:35:36.271Z,100689.02
2018-06-10T13:38:05.128Z,100695.48
2018-06-10T13:40:33.759Z,100692.05
2018-06-10T13:43:02.555Z,100690.12
2018-06-10T13:45:31.169Z,100685.55
2018-06-10T13:47:59.739Z,100689.77
2018-06-10T13:50:28.384Z,100692.30
2018-06-10T13:52:57.288Z,100690.67
2018-06-10T13:55:25.900Z,100698.91
2018-06-10T13:57:54.543Z,100688.41
2018-06-10T14:00:23.113Z,100694.52
2018-06-10T14:02:51.682Z,100691.37
2018-06-10T14:05:20.431Z,100689.28
2018-06-10T14:07:49.034Z,100686.62
2018-06-10T14:10:17.682Z,100687.78
2018-06-10T14:12:46.259Z,100689.78
2018-06-10T14:15:14.876Z,100691.06
2018-06-10T14:17:43.451Z,100688.92
2018-06-10T14:20:12.127Z,100691.41
2018-06-10T14:22:40.728Z,100687.40
2018-06-10T14:25:09.364Z,100690.40
2018-06-10T14:27:37.921Z,100679.86
2018-06-10T14:30:07.997Z,100676.73
2018-06-10T14:32:36.667Z,100676.81
2018-06-10T14:35:05.288Z,100671.16
2018-06-10T14:37:33.906Z,100679.64
2018-06-10T14:40:02.458Z,100679.64
2018-06-10T14:42:31.051Z,100672.10
2018-06-10T14:45:00.363Z,100675.60
2018-06-10T14:47:28.977Z,100672.85
2018-06-10T14:49:57.813Z,100676.30
2018-06-10T14:52:26.435Z,100669.78
2018-06-10T14:54:55.088Z,100661.75
2018-06-10T14:57:23.693Z,100656.41
2018-06-10T14:59:52.511Z,100660.67
2018-06-10T15:02:21.252Z,100657.95
2018-06-10T15:04:50.057Z,100656.18
2018-06-10T15:07:18.687Z,100656.17
2018-06-10T15:09:47.220Z,100659.78
2018-06-10T15:12:15.851Z,100660.84
2018-06-10T15:14:44.519Z,100657.69
2018-06-10T15:17:13.144Z,100649.95
2018-06-10T15:19:41.736Z,100656.95
2018-06-10T15:22:10.430Z,100660.52
2018-06-10T15:24:38.990Z,100659.53
2018-06-10T15:27:07.833Z,100655.05
2018-06-10T15:29:36.459Z,100650.48
2018-06-10T15:32:05.154Z,100646.13
2018-06-10T15:34:33.754Z,100649.79
2018-06-10T15:37:02.357Z,100652.30
2018-06-10T15:39:30.910Z,100647.52
2018-06-10T15:41:59.590Z,100641.88
2018-06-10T15:44:28.251Z,100646.77
2018-06-10T15:46:56.866Z,100640.67
2018-06-10T15:49:25.428Z,100647.77
2018-06-10T15:51:54.079Z,100641.53
2018-06-10T15:54:22.714Z,100638.70
2018-06-10T15:56:51.333Z,100640.08
2018-06-10T15:59:20.110Z,100638.35
2018-06-10T16:01:48.716Z,100635.80
2018-06-10T16:04:17.349Z,100633.68
2018-06-10T16:06:45.932Z,100631.87
2018-06-10T16:09:14.825Z,100622.63
2018-06-10T16:11:43.452Z,100620.08
2018-06-10T16:14:12.038Z,100614.27
2018-06-10T16:16:40.624Z,100618.84
2018-06-10T16:19:09.232Z,100612.98
2018-06-10T16:21:37.941Z,100613.59
2018-06-10T16:24:06.629Z,100616.11
2018-06-10T16:26:35.220Z,100609.03
2018-06-10T16:29:04.061Z,100608.27
2018-06-10T16:31:32.924Z,100616.26
2018-06-10T16:34:01.945Z,100615.31
2018-06-10T16:36:30.538Z,100622.71
2018-06-10T16:38:59.200Z,100623.41
2018-06-10T16:41:27.854Z,100626.59
2018-06-10T16:43:56.495Z,100628.18
2018-06-10T16:46:25.332Z,100627.41
2018-06-10T16:48:54.017Z,100623.84
2018-06-10T16:51:22.601Z,100623.84
2018-06-10T16:53:51.240Z,100622.35
2018-06-10T16:56:19.838Z,100625.06
2018-06-10T16:58:48.416Z,100629.94
2018-06-10T17:01:17.075Z,100635.23
2018-06-10T17:03:45.922Z,100631.22
2018-06-10T17:06:14.590Z,100633.37
2018-06-10T17:08:43.144Z,100638.23
2018-06-10T17:11:11.794Z,100645.38
2018-06-10T17:13:40.385Z,100637.30
2018-06-10T17:16:09.016Z,100650.34
2018-06-10T17:18:37.740Z,100656.28
2018-06-10T17:21:06.443Z,100652.44
2018-06-10T17:23:35.044Z,100655.43
2018-06-10T17:26:03.687Z,100652.19
2018-06-10T17:28:32.265Z,100651.80
2018-06-10T17:31:01.007Z,100646.46
2018-06-10T17:33:29.604Z,100638.11
2018-06-10T17:35:58.262Z,100631.78
2018-06-10T17:38:26.872Z,100639.92
2018-06-10T17:40:55.546Z,100637.84
2018-06-10T17:43:24.204Z,100641.65
2018-06-10T17:45:52.850Z,100645.77
2018-06-10T17:48:21.574Z,100646.23
2018-06-10T17:50:50.203Z,100648.34
2018-06-10T17:53:18.825Z,100642.66
2018-06-10T17:55:47.416Z,100642.73
2018-06-10T17:58:16.017Z,100643.71
2018-06-10T18:00:44.638Z,100650.86
2018-06-10T18:03:13.270Z,100648.27
2018-06-10T18:05:41.963Z,100647.80
2018-06-10T18:08:10.582Z,100639.41
2018-06-10T18:10:39.206Z,100634.08
2018-06-10T18:13:07.934Z,100627.70
2018-06-10T18:15:36.910Z,100624.29
2018-06-10T18:18:05.676Z,100625.02
2018-06-10T18:20:34.368Z,100629.95
2018-06-10T18:23:03.058Z,100628.44
2018-06-10T18:25:31.805Z,100633.58
2018-06-10T18:28:00.472Z,100646.16
2018-06-10T18:30:29.103Z,100647.25
2018-06-10T18:32:57.921Z,100654.29
2018-06-10T18:35:26.538Z,100651.40
2018-06-10T18:37:55.368Z,100651.66
2018-06-10T18:40:23.990Z,100651.94
2018-06-10T18:42:52.736Z,100656.22
2018-06-10T18:45:21.440Z,100660.91
2018-06-10T18:47:50.082Z,100662.66
2018-06-10T18:50:18.785Z,100660.19
2018-06-10T18:52:47.364Z,100669.00
2018-06-10T18:55:15.985Z,100669.50
2018-06-10T18:57:44.802Z,100674.07
2018-06-10T19:00:13.457Z,100677.45
2018-06-10T19:02:42.040Z,100693.67
2018-06-10T19:05:10.866Z,100694.16
2018-06-10T19:07:39.871Z,100610.89
2018-06-10T19:10:08.513Z,100695.63
2018-06-10T19:12:37.175Z,100694.61
2018-06-10T19:15:06.109Z,100698.27
2018-06-10T19:17:34.727Z,100684.30
2018-06-10T19:20:03.447Z,100691.00
2018-06-10T19:22:32.174Z,100697.37
2018-06-10T19:25:01.038Z,100693.92
2018-06-10T19:27:29.818Z,100699.23
2018-06-10T19:29:58.392Z,100702.53
2018-06-10T19:32:27.009Z,100709.86
2018-06-10T19:34:55.674Z,100710.44
2018-06-10T19:37:24.424Z,100715.47
2018-06-10T19:39:53.197Z,100720.61
2018-06-10T19:42:21.876Z,100716.62
2018-06-10T19:44:50.484Z,100714.62
2018-06-10T19:47:19.089Z,100720.33
2018-06-10T19:49:48.762Z,100712.16
2018-06-10T19:52:17.381Z,100723.77
2018-06-10T19:54:46.078Z,100727.91
2018-06-10T19:57:14.954Z,100727.81
2018-06-10T19:59:43.620Z,100732.16
2018-06-10T20:02:12.306Z,100734.84
2018-06-10T20:04:41.006Z,100735.95
2018-06-10T20:07:09.693Z,100728.55
2018-06-10T20:09:38.649Z,100743.36
2018-06-10T20:12:07.341Z,100745.95
2018-06-10T20:14:36.037Z,100745.33
2018-06-10T20:17:04.832Z,100743.59
2018-06-10T20:19:33.432Z,100742.67
2018-06-10T20:22:02.268Z,100734.95
2018-06-10T20:24:30.916Z,100737.25
2018-06-10T20:26:59.637Z,100738.89
2018-06-10T20:29:28.314Z,100737.30
2018-06-10T20:31:57.092Z,100745.42
2018-06-10T20:34:25.700Z,100742.00
2018-06-10T20:36:54.375Z,100739.06
2018-06-10T20:39:22.983Z,100742.58
2018-06-10T20:41:51.763Z,100745.35
2018-06-10T20:44:20.393Z,100740.58
2018-06-10T20:46:49.344Z,100749.79
2018-06-10T20:49:18.096Z,100740.83
2018-06-10T20:51:46.895Z,100740.02
2018-06-10T20:54:15.752Z,100747.34
2018-06-10T20:56:44.365Z,100753.02
2018-06-10T20:59:13.150Z,100757.59
2018-06-10T21:01:41.809Z,100752.59
2018-06-10T21:04:10.448Z,100756.83
2018-06-10T21:06:39.073Z,100759.37
2018-06-10T21:09:08.885Z,100761.64
2018-06-10T21:11:37.474Z,100758.17
2018-06-10T21:14:06.192Z,100760.44
2018-06-10T21:16:34.792Z,100752.55
2018-06-10T21:19:03.421Z,100754.98
2018-06-10T21:21:32.097Z,100746.52
2018-06-10T21:24:00.769Z,100748.47
2018-06-10T21:26:29.532Z,100752.83
2018-06-10T21:28:58.196Z,100748.68
2018-06-10T21:31:26.780Z,100753.84
2018-06-10T21:33:55.801Z,100750.30
2018-06-10T21:36:24.449Z,100755.27
2018-06-10T21:38:53.029Z,100754.94
2018-06-10T21:41:21.625Z,100759.72
2018-06-10T21:43:50.241Z,100763.33
2018-06-10T21:46:18.820Z,100763.09
2018-06-10T21:48:47.436Z,100764.17
2018-06-10T21:51:16.190Z,100762.16
2018-06-10T21:53:44.758Z,100763.23
2018-06-10T21:56:13.410Z,100767.45
2018-06-10T21:58:41.998Z,100772.77
2018-06-10T22:01:10.798Z,100779.64
2018-06-10T22:03:39.368Z,100775.97
2018-06-10T22:06:08.034Z,100782.59
2018-06-10T22:08:36.701Z,100776.78
2018-06-10T22:11:05.357Z,100780.63
2018-06-10T22:13:34.087Z,100781.98
2018-06-10T22:16:02.829Z,100785.86
2018-06-10T22:18:32.457Z,100787.83
2018-06-10T22:21:01.006Z,100800.20
2018-06-10T22:23:29.727Z,100804.38
2018-06-10T22:25:58.457Z,100809.48
2018-06-10T22:28:27.143Z,100806.80
2018-06-10T22:30:55.709Z,100810.91
2018-06-10T22:33:24.320Z,100813.17
2018-06-10T22:35:52.869Z,100811.39
2018-06-10T22:38:21.456Z,100813.95
2018-06-10T22:40:50.016Z,100819.20
2018-06-10T22:43:18.593Z,100815.05
2018-06-10T22:45:47.161Z,100815.11
2018-06-10T22:48:15.853Z,100819.24
2018-06-10T22:50:44.737Z,100819.66
2018-06-10T22:55:33.553Z,100816.23
2018-06-10T22:58:02.439Z,100811.09
2018-06-10T23:00:31.285Z,100812.52
2018-06-10T23:03:00.208Z,100815.17
2018-06-10T23:05:28.803Z,100805.88
2018-06-10T23:07:57.377Z,100809.43
2018-06-10T23:10:26.261Z,100806.40
2018-06-10T23:12:54.945Z,100805.08
2018-06-10T23:15:23.579Z,100808.17
2018-06-10T23:17:52.445Z,100803.91
2018-06-10T23:20:21.058Z,100809.22
2018-06-10T23:22:49.627Z,100810.94
2018-06-10T23:25:18.549Z,100816.58
2018-06-10T23:27:47.091Z,100807.78
2018-06-10T23:30:15.720Z,100816.67
2018-06-10T23:32:44.321Z,100808.77
2018-06-10T23:35:13.032Z,100820.55
2018-06-10T23:37:41.605Z,100820.88
2018-06-10T23:40:10.361Z,100812.00
2018-06-10T23:42:38.958Z,100809.02
2018-06-10T23:45:07.580Z,100809.43
2018-06-10T23:47:36.173Z,100816.84
2018-06-10T23:50:04.731Z,100818.16
2018-06-10T23:52:33.338Z,100815.58
2018-06-10T23:55:01.896Z,100822.12
2018-06-10T23:57:30.532Z,100828.25
2018-06-10T23:59:59.089Z,100821.87
